Time;durP1;ratioP1;P1;durP2;ratioP2;P2;SDS_P1;SDS_P2;PMS_P1;PMS_P2;Temp;Humidity;BMP_temperature;BMP_pressure;BME280_temperature;BME280_humidity;BME280_pressure;Samples;Min_cycle;Max_cycle;Signal;HPM_P1;HPM_P2
2022/05/29 00:01:47;;;;;;;8.90;1.75;;;;;;;10.18;88.11;101596.53;5032774;28;20559;-73
2022/05/29 00:04:12;;;;;;;7.20;1.65;;;;;;;10.06;88.63;101578.16;5032731;28;20421;-74
2022/05/29 00:06:41;;;;;;;5.82;1.33;;;;;;;10.07;87.75;101585.06;5031778;28;20059;-74
2022/05/29 00:09:09;;;;;;;6.32;1.50;;;;;;;10.05;87.76;101594.09;5048243;28;20060;-74
2022/05/29 00:11:35;;;;;;;4.97;1.58;;;;;;;10.03;88.25;101588.09;5050748;28;20337;-74
2022/05/29 00:14:00;;;;;;;5.72;1.50;;;;;;;9.91;88.83;101565.38;5032451;28;20049;-74
2022/05/29 00:16:28;;;;;;;5.55;1.50;;;;;;;10.03;87.68;101577.56;5050154;28;20914;-74
2022/05/29 00:18:54;;;;;;;7.88;2.00;;;;;;;9.98;87.98;101558.66;5032954;28;20178;-74
2022/05/29 00:21:19;;;;;;;3.47;1.25;;;;;;;10.00;87.65;101556.72;5033028;28;20112;-74
2022/05/29 00:23:49;;;;;;;7.28;2.00;;;;;;;9.99;87.03;101549.75;5031494;28;20040;-74
2022/05/29 00:26:16;;;;;;;12.07;2.00;;;;;;;10.19;86.84;101574.47;5049633;28;20017;-74
2022/05/29 00:28:42;;;;;;;12.73;2.25;;;;;;;10.22;87.30;101572.41;5049442;28;20389;-74
2022/05/29 00:31:07;;;;;;;7.80;1.45;;;;;;;10.23;88.40;101571.44;5013229;28;20033;-74
2022/05/29 00:33:33;;;;;;;21.60;1.85;;;;;;;10.24;88.31;101569.66;5050307;28;20031;-74
2022/05/29 00:35:58;;;;;;;4.35;1.80;;;;;;;10.25;88.63;101566.84;5031476;28;20396;-74
2022/05/29 00:38:24;;;;;;;7.00;1.95;;;;;;;10.17;88.33;101542.94;5030400;28;20060;-74
2022/05/29 00:41:18;;;;;;;7.85;1.58;;;;;;;10.29;87.87;101551.66;5031961;28;20068;-74
2022/05/29 00:43:47;;;;;;;10.60;2.13;;;;;;;10.25;87.77;101543.13;5050184;28;20233;-74
2022/05/29 00:46:12;;;;;;;6.55;1.90;;;;;;;10.33;86.90;101549.59;5067507;28;20138;-74
2022/05/29 00:48:38;;;;;;;6.45;1.50;;;;;;;10.34;87.02;101559.16;5067920;28;20558;-74
2022/05/29 00:51:08;;;;;;;7.95;1.55;;;;;;;10.32;86.47;101545.25;5069306;28;20033;-74
2022/05/29 00:53:34;;;;;;;6.95;1.38;;;;;;;10.29;85.37;101536.66;5069285;28;20025;-74
2022/05/29 00:56:05;;;;;;;3.95;1.63;;;;;;;10.37;85.73;101540.44;5069581;28;20028;-74
2022/05/29 00:58:30;;;;;;;6.40;1.38;;;;;;;10.37;84.91;101541.28;5069879;28;20094;-74
2022/05/29 01:00:57;;;;;;;6.07;1.23;;;;;;;10.41;84.04;101540.06;5068806;28;20024;-74
2022/05/29 01:03:23;;;;;;;8.65;2.33;;;;;;;10.38;83.03;101536.84;5069981;28;20039;-74
2022/05/29 01:05:48;;;;;;;6.60;1.20;;;;;;;10.40;82.57;101537.53;5068330;28;20040;-74
2022/05/29 01:08:27;;;;;;;7.03;1.35;;;;;;;10.35;81.66;101539.75;5068092;28;20062;-74
2022/05/29 01:11:04;;;;;;;3.95;1.58;;;;;;;10.38;81.72;101536.84;5068246;28;20412;-74
2022/05/29 01:13:53;;;;;;;7.50;1.52;;;;;;;10.38;83.12;101523.63;5065562;28;20456;-74
2022/05/29 01:16:47;;;;;;;8.43;1.50;;;;;;;10.36;84.14;101521.13;5068591;28;20093;-74
2022/05/29 01:19:48;;;;;;;6.20;1.20;;;;;;;10.27;84.63;101504.25;5065923;28;20059;-74
2022/05/29 01:22:38;;;;;;;4.47;1.80;;;;;;;10.36;85.03;101517.66;5067875;28;20379;-74
2022/05/29 01:25:35;;;;;;;6.13;1.65;;;;;;;10.27;87.31;101517.44;5067547;28;20035;-74
2022/05/29 01:28:35;;;;;;;8.50;2.60;;;;;;;10.27;87.93;101517.44;5067703;28;20471;-74
2022/05/29 01:31:09;;;;;;;5.47;1.73;;;;;;;10.26;89.23;101509.69;5042736;28;20116;-74
2022/05/29 01:33:52;;;;;;;10.15;2.00;;;;;;;10.25;89.36;101508.00;5066981;28;20442;-74
2022/05/29 01:36:26;;;;;;;9.35;1.70;;;;;;;10.25;89.70;101514.09;5064054;28;20063;-74
2022/05/29 01:39:09;;;;;;;6.90;2.20;;;;;;;10.27;90.40;101522.72;5068559;28;20028;-74
2022/05/29 01:41:38;;;;;;;7.80;1.25;;;;;;;10.18;90.19;101497.13;5068466;28;20086;-74
2022/05/29 01:44:22;;;;;;;5.38;1.70;;;;;;;10.23;91.72;101497.56;5063909;28;20468;-74
2022/05/29 01:46:54;;;;;;;8.05;1.75;;;;;;;10.31;91.96;101501.41;5048050;28;20055;-73
2022/05/29 01:49:23;;;;;;;7.05;1.77;;;;;;;10.34;91.43;101501.13;5048593;28;20546;-74
2022/05/29 01:51:54;;;;;;;7.25;2.38;;;;;;;10.35;92.57;101502.81;5049002;28;20017;-74
2022/05/29 01:54:24;;;;;;;;;;;;;;;10.32;92.99;101500.41;5030211;28;20039;-74
2022/05/29 01:56:54;;;;;;;12.27;1.80;;;;;;;10.29;92.85;101494.44;5047279;28;19919;-74
2022/05/29 02:00:02;;;;;;;7.60;1.75;;;;;;;10.21;92.58;101481.06;5048026;28;20075;-74
2022/05/29 02:02:51;;;;;;;4.20;1.48;;;;;;;10.28;92.31;101492.75;5035978;28;20136;-74
2022/05/29 02:05:27;;;;;;;10.25;1.88;;;;;;;10.21;91.48;101491.59;5047491;28;20033;-74
2022/05/29 02:08:10;;;;;;;9.02;2.00;;;;;;;10.26;90.39;101488.56;5045562;28;20400;-74
2022/05/29 02:10:41;;;;;;;6.60;1.45;;;;;;;10.24;90.61;101485.22;5048151;28;20031;-74
2022/05/29 02:13:28;;;;;;;10.52;2.25;;;;;;;10.25;90.44;101489.53;5047198;28;20072;-74
2022/05/29 02:16:16;;;;;;;11.90;2.10;;;;;;;10.23;91.98;101494.09;5047557;28;20025;-74
2022/05/29 02:19:16;;;;;;;10.30;1.58;;;;;;;10.17;93.14;101490.19;5039552;28;20040;-75
2022/05/29 02:21:54;;;;;;;7.80;2.50;;;;;;;10.13;93.54;101490.59;4943999;28;20031;-75
2022/05/29 02:24:25;;;;;;;8.98;1.75;;;;;;;10.11;94.68;101496.00;4940406;28;20346;-74
2022/05/29 02:27:15;;;;;;;3.95;1.42;;;;;;;10.05;95.47;101486.78;4943647;28;20043;-74
2022/05/29 02:29:42;;;;;;;5.20;2.05;;;;;;;10.02;97.33;101484.44;4942921;28;20119;-73
2022/05/29 02:32:25;;;;;;;10.05;2.00;;;;;;;10.01;97.86;101480.09;4945482;28;20054;-73
2022/05/29 02:35:04;;;;;;;9.57;2.00;;;;;;;9.96;97.59;101477.03;4940280;28;20042;-74
2022/05/29 02:37:35;;;;;;;8.00;1.90;;;;;;;9.98;97.16;101479.53;4940323;28;20054;-73
2022/05/29 02:40:32;;;;;;;10.57;2.40;;;;;;;9.99;96.21;101473.28;4926554;29;20033;-73
2022/05/29 02:43:22;;;;;;;9.57;1.83;;;;;;;9.99;95.86;101460.94;4926151;29;20522;-73
2022/05/29 02:46:21;;;;;;;8.95;1.60;;;;;;;10.00;95.68;101465.25;4979079;28;20050;-73
2022/05/29 02:48:59;;;;;;;7.38;1.58;;;;;;;10.00;94.69;101459.16;4976691;28;20090;-74
2022/05/29 02:51:37;;;;;;;14.75;2.15;;;;;;;9.98;94.63;101450.53;4978858;28;20039;-74
2022/05/29 02:54:02;;;;;;;6.28;2.03;;;;;;;9.97;95.17;101454.13;4979016;28;20034;-74
2022/05/29 02:56:27;;;;;;;10.68;2.03;;;;;;;10.00;94.99;101457.34;4992669;28;20090;-73
2022/05/29 02:58:57;;;;;;;10.23;2.22;;;;;;;9.92;93.93;101443.97;5066217;28;20027;-72
2022/05/29 03:01:42;;;;;;;6.50;2.15;;;;;;;10.04;93.71;101457.94;5067211;28;20020;-72
2022/05/29 03:04:14;;;;;;;9.20;1.67;;;;;;;10.07;93.53;101455.84;5067519;28;20032;-72
2022/05/29 03:07:02;;;;;;;10.23;2.67;;;;;;;10.06;93.10;101448.06;5063487;28;20507;-74
2022/05/29 03:09:27;;;;;;;13.20;1.83;;;;;;;10.04;92.72;101447.38;5066808;28;20021;-73
2022/05/29 03:11:53;;;;;;;6.22;1.55;;;;;;;10.02;93.30;101446.69;5067625;28;20020;-73
2022/05/29 03:14:49;;;;;;;10.25;2.08;;;;;;;9.92;92.64;101448.41;5067933;28;20028;-74
2022/05/29 03:17:23;;;;;;;9.25;1.65;;;;;;;9.91;91.15;101447.59;5068377;28;20105;-73
2022/05/29 03:20:21;;;;;;;5.57;1.10;;;;;;;9.92;91.51;101448.41;5081208;28;20028;-73
2022/05/29 03:22:59;;;;;;;5.32;1.02;;;;;;;9.81;92.22;101436.16;5080921;28;20090;-73
2022/05/29 03:25:40;;;;;;;5.07;1.70;;;;;;;9.64;93.29;101419.13;5065833;28;20450;-74
2022/05/29 03:28:13;;;;;;;3.38;1.15;;;;;;;9.70;93.99;101439.69;5066027;28;20355;-74
2022/05/29 03:30:40;;;;;;;8.32;1.40;;;;;;;9.62;93.07;101416.59;5065659;28;20055;-73
2022/05/29 03:33:09;;;;;;;11.20;1.42;;;;;;;9.59;91.97;101416.88;5067666;28;20024;-73
2022/05/29 03:35:55;;;;;;;2.00;0.98;;;;;;;9.74;91.32;101430.56;5065073;28;20078;-73
2022/05/29 03:38:21;;;;;;;3.55;0.90;;;;;;;9.76;90.51;101426.00;5056514;28;20049;-74
2022/05/29 03:40:48;;;;;;;8.63;1.48;;;;;;;9.79;90.36;101430.16;5066656;28;20062;-73
2022/05/29 03:43:14;;;;;;;6.97;1.60;;;;;;;9.78;91.00;101426.72;5066896;28;20059;-73
2022/05/29 03:45:39;;;;;;;10.07;2.78;;;;;;;9.79;90.96;101428.38;5049537;28;20076;-73
2022/05/29 03:48:05;;;;;;;12.02;1.80;;;;;;;9.79;91.93;101427.53;5029430;28;20032;-73
2022/05/29 03:50:34;;;;;;;3.65;1.30;;;;;;;9.77;91.93;101424.19;5012141;28;20127;-74
2022/05/29 03:53:00;;;;;;;12.93;1.35;;;;;;;9.78;91.29;101426.72;5047424;28;20048;-74
2022/05/29 03:55:26;;;;;;;13.38;1.70;;;;;;;9.54;90.90;101384.81;5029976;28;20045;-74
2022/05/29 03:57:52;;;;;;;10.18;1.73;;;;;;;9.86;90.96;101436.59;5046590;28;20063;-74
2022/05/29 04:00:19;;;;;;;11.10;1.90;;;;;;;9.86;91.57;101429.53;5031510;28;20040;-74
2022/05/29 04:02:45;;;;;;;5.95;1.63;;;;;;;9.86;91.86;101429.53;5050141;28;20546;-73
2022/05/29 04:05:13;;;;;;;9.18;1.52;;;;;;;9.81;90.78;101415.88;5049411;28;20029;-73
2022/05/29 04:13:08;;;;;;;5.43;1.23;;;;;;;9.89;90.53;101408.16;5035283;28;20048;-74
2022/05/29 04:15:35;;;;;;;5.63;1.55;;;;;;;10.04;91.50;101426.28;5049509;28;20435;-74
2022/05/29 04:18:00;;;;;;;11.18;1.80;;;;;;;9.99;91.32;101415.28;5049885;28;20102;-73
2022/05/29 04:20:26;;;;;;;6.32;1.80;;;;;;;10.08;90.86;101430.31;5015076;28;20804;-73
2022/05/29 04:22:51;;;;;;;10.18;1.80;;;;;;;10.08;91.42;101420.59;5032178;28;20087;-74
2022/05/29 04:25:16;;;;;;;11.75;2.40;;;;;;;10.06;91.17;101419.03;5031611;28;20055;-74
2022/05/29 04:27:42;;;;;;;6.05;1.25;;;;;;;10.05;90.71;101407.66;5032250;28;20105;-73
2022/05/29 04:30:08;;;;;;;9.43;2.40;;;;;;;9.99;89.83;101396.81;5015494;28;20076;-73
2022/05/29 04:33:06;;;;;;;9.68;1.90;;;;;;;10.14;89.26;101421.88;5032676;28;20025;-74
2022/05/29 04:35:39;;;;;;;7.43;1.55;;;;;;;10.16;89.27;101413.81;5044670;28;20404;-73
2022/05/29 04:38:05;;;;;;;9.32;1.63;;;;;;;10.12;90.52;101428.25;5023413;28;20079;-73
2022/05/29 04:40:31;;;;;;;12.68;2.22;;;;;;;10.01;90.52;101434.44;5049543;28;20025;-74
2022/05/29 04:42:56;;;;;;;5.05;1.38;;;;;;;9.89;91.25;101429.25;5050138;28;20068;-74
2022/05/29 04:45:22;;;;;;;8.35;1.67;;;;;;;10.00;92.45;101436.25;5058541;28;20075;-74
2022/05/29 04:47:47;;;;;;;7.53;1.70;;;;;;;9.94;92.57;101422.75;5070239;28;20139;-74
2022/05/29 04:50:13;;;;;;;9.15;1.92;;;;;;;9.96;91.81;101426.09;5068979;28;20024;-74
2022/05/29 04:52:38;;;;;;;9.93;1.98;;;;;;;9.88;92.19;101418.84;5069118;28;20553;-74
2022/05/29 04:55:05;;;;;;;7.85;1.73;;;;;;;10.03;92.74;101435.16;5068967;28;20055;-74
2022/05/29 04:57:30;;;;;;;8.23;1.30;;;;;;;10.03;92.59;101432.50;5069805;28;20138;-74
2022/05/29 04:59:57;;;;;;;13.00;1.88;;;;;;;9.94;91.88;101413.03;5069278;28;20111;-74
2022/05/29 05:02:23;;;;;;;7.30;1.55;;;;;;;10.04;91.57;101418.38;5070327;28;20020;-74
2022/05/29 05:04:49;;;;;;;5.57;1.50;;;;;;;10.06;90.35;101416.41;5068935;28;20044;-74
2022/05/29 05:07:14;;;;;;;7.50;1.80;;;;;;;10.06;90.89;101425.19;5068945;28;20028;-74
2022/05/29 05:09:40;;;;;;;7.20;1.52;;;;;;;9.88;90.05;101406.47;5068769;28;20471;-74
2022/05/29 05:12:05;;;;;;;10.70;2.35;;;;;;;9.93;90.13;101406.13;5067866;28;20029;-74
2022/05/29 05:14:34;;;;;;;8.70;1.67;;;;;;;10.10;89.45;101425.72;5068470;28;20043;-74
2022/05/29 05:16:59;;;;;;;6.18;1.38;;;;;;;10.20;89.49;101416.06;5067361;28;20055;-74
2022/05/29 05:19:25;;;;;;;8.80;1.25;;;;;;;10.23;87.74;101421.06;5067265;28;20063;-74
2022/05/29 05:21:50;;;;;;;6.78;1.35;;;;;;;10.12;88.39;101397.41;5063793;28;20028;-74
2022/05/29 05:24:17;;;;;;;13.85;1.73;;;;;;;10.27;87.17;101419.81;5068614;28;20075;-75
2022/05/29 05:26:42;;;;;;;8.27;1.33;;;;;;;10.22;86.77;101403.56;5067604;28;20285;-74
2022/05/29 05:29:08;;;;;;;10.43;1.55;;;;;;;10.27;87.26;101409.28;5067450;28;20408;-74
2022/05/29 05:31:33;;;;;;;13.60;1.65;;;;;;;10.37;87.69;101411.16;5059489;28;20378;-74
2022/05/29 05:34:02;;;;;;;7.13;2.10;;;;;;;10.48;87.36;101418.97;5049932;28;20031;-74
2022/05/29 05:36:28;;;;;;;7.28;1.73;;;;;;;10.41;87.36;101409.91;5070145;28;20063;-74
2022/05/29 05:38:53;;;;;;;7.63;1.67;;;;;;;10.50;87.59;101423.13;5065598;28;20064;-74
2022/05/29 05:41:20;;;;;;;13.32;1.80;;;;;;;10.42;86.17;101403.66;5051064;28;20040;-74
2022/05/29 05:43:46;;;;;;;9.68;1.85;;;;;;;10.49;87.53;101420.63;5063350;28;20024;-75
2022/05/29 05:46:15;;;;;;;7.40;1.55;;;;;;;10.52;88.81;101414.22;5049211;28;20044;-75
2022/05/29 05:48:40;;;;;;;9.07;1.88;;;;;;;10.50;88.23;101422.31;5049544;28;20036;-74
2022/05/29 05:51:07;;;;;;;8.38;2.58;;;;;;;10.53;88.65;101421.19;5048755;28;20337;-73
2022/05/29 05:53:33;;;;;;;6.18;1.38;;;;;;;10.50;89.41;101422.31;5049097;28;20400;-74
2022/05/29 05:55:58;;;;;;;7.53;1.50;;;;;;;10.56;88.68;101421.75;5031017;28;20025;-75
2022/05/29 05:58:24;;;;;;;10.57;1.88;;;;;;;10.59;88.90;101415.38;5031190;28;20199;-75
2022/05/29 06:00:50;;;;;;;10.52;1.40;;;;;;;10.62;88.60;101421.19;5031081;28;20033;-75
2022/05/29 06:03:16;;;;;;;9.85;1.88;;;;;;;10.68;87.17;101425.94;5048664;28;20450;-75
2022/05/29 06:05:42;;;;;;;9.68;1.83;;;;;;;10.78;88.04;101427.75;5030893;28;20032;-75
2022/05/29 06:08:08;;;;;;;15.80;2.88;;;;;;;10.78;87.74;101430.38;5031233;28;20450;-75
2022/05/29 06:10:34;;;;;;;10.55;1.45;;;;;;;10.75;85.11;101431.50;5027902;28;20032;-75
2022/05/29 06:13:04;;;;;;;7.45;0.88;;;;;;;10.69;84.79;101427.63;5048992;28;20025;-75
2022/05/29 06:15:30;;;;;;;9.50;1.65;;;;;;;10.70;84.12;101431.91;5028604;28;20500;-74
2022/05/29 06:17:56;;;;;;;8.57;1.33;;;;;;;10.64;84.25;101429.81;5049471;28;20254;-74
2022/05/29 06:20:22;;;;;;;9.30;1.77;;;;;;;10.60;84.93;101436.34;5049854;28;20038;-74
2022/05/29 06:22:47;;;;;;;8.70;1.23;;;;;;;10.53;85.92;101432.56;5047341;28;20060;-75
2022/05/29 06:25:12;;;;;;;4.28;1.25;;;;;;;10.51;87.17;101445.06;5049102;28;20111;-75
2022/05/29 06:27:40;;;;;;;9.30;1.90;;;;;;;10.48;88.12;101448.00;5048503;28;20399;-74
2022/05/29 06:30:08;;;;;;;9.70;1.48;;;;;;;10.39;88.74;101440.88;5030092;28;20028;-75
2022/05/29 06:32:34;;;;;;;6.60;1.25;;;;;;;10.34;89.37;101428.06;5029130;28;20051;-75
2022/05/29 06:35:00;;;;;;;6.07;1.20;;;;;;;10.46;89.62;101444.66;5030476;28;20024;-75
2022/05/29 06:37:25;;;;;;;6.60;1.83;;;;;;;10.42;90.20;101443.25;5048995;28;20086;-75
2022/05/29 06:39:51;;;;;;;5.35;1.40;;;;;;;10.44;90.14;101442.13;5030612;28;20031;-75
2022/05/29 06:42:16;;;;;;;4.75;1.67;;;;;;;10.41;89.79;101433.63;5047415;28;20461;-75
2022/05/29 06:44:42;;;;;;;7.45;1.42;;;;;;;10.48;88.49;101440.91;5048373;28;20394;-75
2022/05/29 06:47:09;;;;;;;5.20;1.08;;;;;;;10.55;86.60;101438.56;5031070;28;20056;-74
2022/05/29 06:49:35;;;;;;;6.22;1.50;;;;;;;10.60;85.92;101441.59;5028648;28;20039;-74
2022/05/29 06:52:04;;;;;;;6.95;1.95;;;;;;;10.56;84.42;101421.75;5048824;28;20073;-74
2022/05/29 06:54:30;;;;;;;4.97;1.08;;;;;;;10.71;85.26;101440.66;5045511;28;20029;-74
2022/05/29 06:56:55;;;;;;;10.07;1.48;;;;;;;10.72;85.29;101444.16;5014478;28;20338;-74
2022/05/29 06:59:21;;;;;;;5.18;0.98;;;;;;;10.74;85.58;101444.84;5048529;28;20068;-74
2022/05/29 07:07:16;;;;;;;7.20;1.80;;;;;;;10.70;84.86;101433.72;5033369;28;20036;-74
2022/05/29 07:09:41;;;;;;;5.00;1.30;;;;;;;10.83;83.57;101441.38;5013771;28;20025;-74
2022/05/29 07:12:09;;;;;;;7.22;1.00;;;;;;;10.94;83.67;101443.91;5047539;28;20396;-74
2022/05/29 07:14:40;;;;;;;11.68;1.52;;;;;;;11.08;82.65;101442.66;5030312;28;20306;-73
2022/05/29 07:17:06;;;;;;;7.55;1.00;;;;;;;11.04;82.15;101447.41;5031017;28;20017;-73
2022/05/29 07:19:34;;;;;;;5.57;1.20;;;;;;;11.06;83.38;101448.09;5048492;28;20048;-75
2022/05/29 07:22:00;;;;;;;6.03;1.65;;;;;;;11.11;83.21;101448.50;5048223;28;20493;-75
2022/05/29 07:24:26;;;;;;;7.07;1.70;;;;;;;11.12;82.89;101460.72;5030809;28;20087;-73
2022/05/29 07:26:53;;;;;;;3.42;0.80;;;;;;;11.10;83.14;101441.56;5044484;28;20033;-73
2022/05/29 07:29:19;;;;;;;8.18;1.10;;;;;;;11.19;83.27;101454.88;5014914;28;20063;-73
2022/05/29 07:31:45;;;;;;;10.00;1.25;;;;;;;11.20;84.04;101453.94;5030658;28;20037;-73
2022/05/29 07:34:11;;;;;;;4.38;1.25;;;;;;;11.16;82.90;101439.31;5050529;28;20025;-73
2022/05/29 07:36:38;;;;;;;6.18;1.58;;;;;;;11.04;83.37;101447.41;5034775;28;20439;-73
2022/05/29 07:39:03;;;;;;;3.75;1.20;;;;;;;11.08;83.71;101454.06;5035149;28;20025;-73
2022/05/29 07:44:13;;;;;;;2.97;1.00;;;;;;;11.08;84.86;101464.63;5052390;28;20072;-73
2022/05/29 07:46:38;;;;;;;5.40;0.90;;;;;;;11.15;84.69;101454.34;5051504;28;20485;-73
2022/05/29 07:49:03;;;;;;;5.78;1.30;;;;;;;11.28;83.44;101454.91;5034186;28;20389;-73
2022/05/29 07:51:29;;;;;;;5.15;0.98;;;;;;;11.45;82.54;101457.78;5052004;28;20889;-73
2022/05/29 07:53:57;;;;;;;5.47;1.10;;;;;;;11.56;81.02;101451.53;5052083;28;20078;-73
2022/05/29 07:56:22;;;;;;;4.15;1.17;;;;;;;11.61;82.50;101460.72;5049769;28;20039;-73
2022/05/29 07:58:47;;;;;;;3.80;1.33;;;;;;;11.50;83.12;101463.50;5048541;28;20409;-73
2022/05/29 08:01:13;;;;;;;9.10;1.63;;;;;;;11.48;84.14;101461.00;5051070;28;20021;-73
2022/05/29 08:03:39;;;;;;;6.40;1.05;;;;;;;11.36;84.50;101450.72;5032708;28;20357;-73
2022/05/29 08:06:05;;;;;;;9.45;1.20;;;;;;;11.33;84.01;101470.34;5030408;28;20052;-73
2022/05/29 08:08:32;;;;;;;4.00;1.05;;;;;;;11.25;84.86;101471.00;5051173;28;20025;-73
2022/05/29 08:10:57;;;;;;;3.35;0.93;;;;;;;11.13;85.52;101474.78;5050905;28;20389;-73
2022/05/29 08:13:24;;;;;;;4.60;1.15;;;;;;;11.16;86.18;101478.94;5050719;28;20033;-73
2022/05/29 08:15:49;;;;;;;4.65;1.33;;;;;;;11.08;87.05;101477.84;5034020;28;20063;-73
2022/05/29 08:18:14;;;;;;;7.50;1.50;;;;;;;11.08;86.42;101472.56;5032592;28;20588;-73
2022/05/29 08:20:40;;;;;;;5.38;1.75;;;;;;;11.13;86.37;101469.50;5032962;28;20029;-73
2022/05/29 08:23:06;;;;;;;7.65;1.10;;;;;;;11.30;87.19;101465.31;5016110;28;20481;-73
2022/05/29 08:31:19;;;;;;;6.93;0.95;;;;;;;11.50;84.00;101443.19;4969290;28;20474;-73
2022/05/29 08:33:46;;;;;;;4.05;1.00;;;;;;;11.59;80.63;101430.94;4953859;28;20050;-73
2022/05/29 08:36:20;;;;;;;5.70;0.70;;;;;;;11.86;78.89;101459.25;4937502;28;20046;-73
2022/05/29 08:38:48;;;;;;;3.25;0.80;;;;;;;12.14;77.25;101460.16;4968693;28;20030;-73
2022/05/29 08:41:21;;;;;;;6.05;0.90;;;;;;;12.32;77.96;101459.41;4953915;28;20027;-75
2022/05/29 08:44:10;;;;;;;6.20;0.82;;;;;;;12.37;75.74;101456.31;4951783;28;20391;-74
2022/05/29 08:46:49;;;;;;;6.85;2.35;;;;;;;12.50;74.29;101451.53;4964769;28;20031;-73
2022/05/29 08:49:17;;;;;;;4.82;1.00;;;;;;;12.65;73.63;101458.00;4953644;28;20031;-73
2022/05/29 08:51:45;;;;;;;4.50;0.68;;;;;;;12.68;72.92;101462.97;4961265;28;20544;-75
2022/05/29 08:54:16;;;;;;;2.13;0.40;;;;;;;12.67;72.11;101461.31;4966828;28;20470;-76
2022/05/29 08:56:50;;;;;;;;;;;;;;;12.40;74.58;101467.44;4968333;28;20042;-73
2022/05/29 08:59:24;;;;;;;1.40;0.77;;;;;;;12.31;75.58;101447.97;4967868;28;20442;-73
2022/05/29 09:02:07;;;;;;;7.68;1.17;;;;;;;12.29;76.44;101447.28;4983765;28;20083;-73
2022/05/29 09:04:45;;;;;;;6.82;1.08;;;;;;;12.37;77.16;101461.59;5050418;28;20027;-75
2022/05/29 09:07:11;;;;;;;5.05;1.02;;;;;;;12.38;78.32;101468.59;5050802;28;20021;-73
2022/05/29 09:09:42;;;;;;;2.67;0.82;;;;;;;12.33;80.95;101464.56;5050639;28;20546;-75
2022/05/29 09:12:15;;;;;;;7.90;1.38;;;;;;;12.22;81.92;101462.09;5050143;28;20458;-74
2022/05/29 09:14:47;;;;;;;3.05;0.98;;;;;;;12.05;81.60;101465.50;5049323;28;20017;-74
2022/05/29 09:17:31;;;;;;;6.45;1.38;;;;;;;12.13;81.99;101461.16;5032410;28;20029;-74
2022/05/29 09:20:01;;;;;;;8.05;1.30;;;;;;;12.17;81.49;101453.75;5048994;28;20041;-74
2022/05/29 09:22:35;;;;;;;2.22;0.80;;;;;;;12.37;81.24;101456.31;5032202;28;20025;-74
2022/05/29 09:25:04;;;;;;;8.80;1.55;;;;;;;12.40;80.29;101462.16;5049251;28;20017;-74
2022/05/29 09:27:31;;;;;;;3.70;0.68;;;;;;;12.29;79.34;101455.25;5049739;28;20040;-75
2022/05/29 09:29:56;;;;;;;3.92;0.90;;;;;;;12.27;77.60;101424.59;5032429;28;20040;-74
2022/05/29 09:32:29;;;;;;;6.97;1.23;;;;;;;12.45;77.37;101453.75;5032874;28;20037;-75
2022/05/29 09:35:11;;;;;;;5.70;0.77;;;;;;;12.59;77.25;101455.94;5049998;28;20386;-74
2022/05/29 09:37:41;;;;;;;9.52;1.73;;;;;;;12.76;75.82;101451.66;5047379;28;20025;-75
2022/05/29 09:40:16;;;;;;;3.17;0.65;;;;;;;12.92;75.83;101450.97;5031938;28;20436;-74
2022/05/29 09:42:45;;;;;;;7.20;1.38;;;;;;;12.97;74.56;101441.56;5046220;28;20083;-74
2022/05/29 09:45:12;;;;;;;6.35;0.80;;;;;;;12.93;71.06;101442.03;5049168;28;20098;-74
2022/05/29 09:50:36;;;;;;;2.75;0.80;;;;;;;13.24;71.07;101450.44;5051077;28;20052;-74
2022/05/29 09:53:01;;;;;;;7.65;1.25;;;;;;;13.31;70.77;101432.16;5050313;28;20047;-74
2022/05/29 09:55:32;;;;;;;9.38;1.00;;;;;;;13.74;71.02;101451.66;5031588;28;20029;-74
2022/05/29 09:58:02;;;;;;;8.63;1.23;;;;;;;13.97;70.27;101436.88;5050326;28;20025;-74
2022/05/29 10:00:32;;;;;;;6.65;1.02;;;;;;;14.15;69.12;101455.41;5049626;28;20136;-74
2022/05/29 10:02:59;;;;;;;8.43;1.13;;;;;;;14.10;70.45;101446.25;5050267;28;20028;-75
2022/05/29 10:05:44;;;;;;;5.95;0.80;;;;;;;14.15;69.11;101447.44;5048670;28;20091;-75
2022/05/29 10:08:19;;;;;;;7.65;1.50;;;;;;;14.22;67.38;101442.31;5046096;28;20029;-74
2022/05/29 10:10:45;;;;;;;8.68;0.88;;;;;;;14.27;67.14;101444.50;5028397;28;20042;-73
2022/05/29 10:13:10;;;;;;;5.88;1.00;;;;;;;14.11;67.32;101445.25;5049096;28;20417;-75
2022/05/29 10:15:40;;;;;;;5.00;1.17;;;;;;;13.96;67.16;101445.84;5047484;28;20032;-75
2022/05/29 10:18:35;;;;;;;7.50;0.98;;;;;;;14.07;68.49;101446.56;5047548;28;20017;-74
2022/05/29 10:21:23;;;;;;;8.70;1.10;;;;;;;13.87;69.74;101445.94;5045810;28;20354;-74
2022/05/29 10:23:58;;;;;;;5.15;1.13;;;;;;;13.79;69.87;101449.38;5048025;28;20107;-74
2022/05/29 10:26:35;;;;;;;5.50;1.30;;;;;;;13.45;73.48;101463.41;5044647;28;20035;-74
2022/05/29 10:29:11;;;;;;;3.63;0.57;;;;;;;13.31;75.11;101440.94;5044015;28;20035;-75
2022/05/29 10:31:39;;;;;;;10.98;1.25;;;;;;;13.49;75.79;101454.16;5046066;28;20028;-75
2022/05/29 10:34:14;;;;;;;6.00;1.08;;;;;;;13.34;76.39;101448.56;5029662;28;20052;-74
2022/05/29 10:36:40;;;;;;;2.70;1.05;;;;;;;13.26;76.69;101451.13;5047450;28;20250;-74
2022/05/29 10:39:29;;;;;;;4.78;1.00;;;;;;;13.18;77.82;101456.34;5046960;28;20042;-74
2022/05/29 10:41:55;;;;;;;9.38;1.85;;;;;;;13.31;78.42;101451.53;5044998;28;20218;-75
2022/05/29 10:44:41;;;;;;;4.50;0.80;;;;;;;13.33;79.40;101440.78;5036651;28;20056;-76
2022/05/29 10:47:16;;;;;;;4.95;1.23;;;;;;;13.71;79.35;101449.34;5057319;28;20085;-74
2022/05/29 10:50:09;;;;;;;7.65;1.00;;;;;;;13.86;76.07;101445.13;5064680;28;20090;-74
2022/05/29 10:52:59;;;;;;;8.85;2.10;;;;;;;14.29;76.50;101446.00;5065895;28;20016;-74
2022/05/29 10:55:46;;;;;;;7.20;1.35;;;;;;;14.49;72.60;101446.56;5080597;28;20113;-74
2022/05/29 10:58:25;;;;;;;6.10;0.73;;;;;;;14.68;71.40;101450.81;5066255;28;20024;-74
2022/05/29 11:04:46;;;;;;;3.35;0.80;;;;;;;15.13;67.67;101454.84;5066061;28;20063;-74
2022/05/29 11:07:28;;;;;;;4.97;0.75;;;;;;;14.87;67.34;101448.84;4985653;28;20026;-74
2022/05/29 11:10:26;;;;;;;7.00;1.20;;;;;;;14.85;67.32;101450.84;4983925;28;20034;-74
2022/05/29 11:13:05;;;;;;;5.93;0.80;;;;;;;14.72;66.79;101436.22;4965294;28;20513;-74
2022/05/29 11:15:57;;;;;;;2.92;0.77;;;;;;;14.71;65.35;101442.50;4984673;28;20113;-74
2022/05/29 11:19:07;;;;;;;6.90;0.98;;;;;;;14.96;66.15;101447.84;4985109;28;20038;-74
2022/05/29 11:21:42;;;;;;;4.72;1.00;;;;;;;15.00;65.55;101431.44;4981677;28;20030;-74
2022/05/29 11:24:22;;;;;;;7.63;1.13;;;;;;;15.19;65.20;101437.41;4985990;28;20140;-74
2022/05/29 11:26:57;;;;;;;5.03;0.80;;;;;;;15.40;65.47;101419.13;4984831;28;20038;-74
2022/05/29 11:29:28;;;;;;;7.45;1.10;;;;;;;15.73;63.50;101434.25;4986172;28;20034;-74
2022/05/29 11:32:14;;;;;;;3.80;0.93;;;;;;;15.86;63.15;101418.59;4969795;28;20045;-74
2022/05/29 11:34:57;;;;;;;7.22;1.33;;;;;;;16.00;62.58;101427.69;4986437;28;20042;-75
2022/05/29 11:37:49;;;;;;;6.07;1.40;;;;;;;15.78;63.86;101423.94;4985004;28;20039;-74
2022/05/29 11:40:25;;;;;;;5.97;1.75;;;;;;;15.49;64.50;101425.28;4985169;28;20041;-74
2022/05/29 11:43:04;;;;;;;4.25;0.85;;;;;;;15.15;66.40;101444.06;4984433;28;20041;-74
2022/05/29 11:51:45;;;;;;;5.85;1.10;;;;;;;14.79;66.53;101426.59;5046060;28;20072;-74
2022/05/29 11:54:27;;;;;;;5.50;1.30;;;;;;;14.94;66.34;101420.63;5046075;28;20162;-74
2022/05/29 11:57:02;;;;;;;6.45;0.98;;;;;;;15.08;66.54;101433.25;5042838;28;20048;-74
2022/05/29 11:59:53;;;;;;;6.60;1.27;;;;;;;15.39;66.60;101432.59;5045447;28;20362;-75
2022/05/29 12:02:40;;;;;;;3.90;0.80;;;;;;;15.45;65.66;101431.09;5046248;28;20104;-74
2022/05/29 12:05:21;;;;;;;4.28;1.13;;;;;;;15.39;64.06;101412.13;5029249;28;20025;-74
2022/05/29 12:07:55;;;;;;;5.95;1.05;;;;;;;15.51;61.32;101420.63;5014246;28;20025;-74
2022/05/29 12:10:23;;;;;;;3.95;1.00;;;;;;;15.56;62.12;101425.44;5047298;28;20041;-75
2022/05/29 12:13:03;;;;;;;5.78;1.13;;;;;;;15.69;61.24;101414.28;5029644;28;20090;-75
2022/05/29 12:15:33;;;;;;;6.63;0.73;;;;;;;15.61;61.69;101423.09;5023424;28;20029;-75
2022/05/29 12:18:03;;;;;;;5.82;1.10;;;;;;;15.42;65.91;101418.97;5046076;28;20216;-74
2022/05/29 12:20:44;;;;;;;7.88;1.42;;;;;;;15.14;69.13;101432.59;5048582;28;20470;-75
2022/05/29 12:23:25;;;;;;;5.93;1.20;;;;;;;14.70;70.97;101438.19;5050433;28;20029;-79